createdAt,value
2017-07-27T00:00:39.999Z,99583
2017-07-27T00:01:39.960Z,99587
2017-07-27T00:02:41.820Z,99591
2017-07-27T00:03:41.299Z,99589
2017-07-27T00:04:40.239Z,99593
2017-07-27T00:05:40.163Z,99588
2017-07-27T00:06:40.314Z,99584
2017-07-27T00:07:40.371Z,99582
2017-07-27T00:08:41.406Z,99589
2017-07-27T00:09:40.661Z,99593
2017-07-27T00:10:41.517Z,99580
2017-07-27T00:11:40.528Z,99582
2017-07-27T00:12:40.607Z,99581
2017-07-27T00:13:42.380Z,99582
2017-07-27T00:14:41.742Z,99582
2017-07-27T00:15:42.867Z,99585
2017-07-27T00:16:42.645Z,99583
2017-07-27T00:17:41.022Z,99581
2017-07-27T00:18:41.974Z,99579
2017-07-27T00:19:41.159Z,99578
2017-07-27T00:20:41.142Z,99577
2017-07-27T00:21:43.131Z,99574
2017-07-27T00:22:41.217Z,99576
2017-07-27T00:23:43.086Z,99567
2017-07-27T00:24:41.311Z,99572
2017-07-27T00:25:43.174Z,99568
2017-07-27T00:26:41.546Z,99571
2017-07-27T00:27:41.870Z,99566
2017-07-27T00:28:41.663Z,99566
2017-07-27T00:29:41.618Z,99572
2017-07-27T00:30:41.627Z,99563
2017-07-27T00:31:42.670Z,99566
2017-07-27T00:32:43.431Z,99556
2017-07-27T00:33:43.714Z,99564
2017-07-27T00:34:41.870Z,99563
2017-07-27T00:35:43.645Z,99561
2017-07-27T00:36:43.594Z,99562
2017-07-27T00:37:43.792Z,99560
2017-07-27T00:38:42.131Z,99564
2017-07-27T00:39:43.407Z,99549
2017-07-27T00:40:43.182Z,99557
2017-07-27T00:41:42.314Z,99561
2017-07-27T00:42:42.358Z,99557
2017-07-27T00:43:42.338Z,99559
2017-07-27T00:44:44.140Z,99554
2017-07-27T00:45:43.648Z,99544
2017-07-27T00:46:42.488Z,99541
2017-07-27T00:47:42.674Z,99545
2017-07-27T00:48:44.264Z,99545
2017-07-27T00:49:44.339Z,99542
2017-07-27T00:50:43.684Z,99542
2017-07-27T00:51:43.218Z,99537
2017-07-27T00:52:43.851Z,99541
2017-07-27T00:53:44.558Z,99545
2017-07-27T00:54:43.012Z,99542
2017-07-27T00:55:43.921Z,99546
2017-07-27T00:56:44.098Z,99553
2017-07-27T00:57:43.308Z,99549
2017-07-27T00:58:44.907Z,99552
2017-07-27T00:59:44.134Z,99543
2017-07-27T01:00:43.312Z,99550
2017-07-27T01:01:43.310Z,99546
2017-07-27T01:02:43.418Z,99547
2017-07-27T01:03:45.393Z,99549
2017-07-27T01:04:45.260Z,99536
2017-07-27T01:05:45.332Z,99538
2017-07-27T01:06:45.242Z,99541
2017-07-27T01:07:43.715Z,99540
2017-07-27T01:08:44.786Z,99541
2017-07-27T01:09:44.942Z,99542
2017-07-27T01:10:43.799Z,99537
2017-07-27T01:11:44.885Z,99542
2017-07-27T01:12:43.837Z,99548
2017-07-27T01:13:45.648Z,99549
2017-07-27T01:14:44.020Z,99538
2017-07-27T01:15:44.282Z,99538
2017-07-27T01:16:45.023Z,99545
2017-07-27T01:17:44.071Z,99545
2017-07-27T01:18:44.252Z,99545
2017-07-27T01:19:44.321Z,99542
2017-07-27T01:20:45.280Z,99544
2017-07-27T01:21:45.691Z,99542
2017-07-27T01:22:45.386Z,99531
2017-07-27T01:23:44.504Z,99540
2017-07-27T01:24:44.661Z,99533
2017-07-27T01:25:46.433Z,99540
2017-07-27T01:26:44.776Z,99541
2017-07-27T01:27:45.161Z,99526
2017-07-27T01:28:46.572Z,99538
2017-07-27T01:29:46.502Z,99538
2017-07-27T01:30:45.928Z,99538
2017-07-27T01:31:45.050Z,99535
2017-07-27T01:32:45.970Z,99531
2017-07-27T01:33:45.399Z,99532
2017-07-27T01:34:46.041Z,99535
2017-07-27T01:35:46.773Z,99535
2017-07-27T01:36:45.246Z,99534
2017-07-27T01:37:45.284Z,99534
2017-07-27T01:38:46.218Z,99534
2017-07-27T01:39:45.695Z,99533
2017-07-27T01:40:46.350Z,99531
2017-07-27T01:41:46.399Z,99530
2017-07-27T01:42:45.498Z,99524
2017-07-27T01:43:46.669Z,99518
2017-07-27T01:44:45.638Z,99520
2017-07-27T01:45:46.970Z,99517
2017-07-27T01:46:47.411Z,99523
2017-07-27T01:47:46.660Z,99523
2017-07-27T01:48:45.896Z,99520
2017-07-27T01:49:45.857Z,99518
2017-07-27T01:50:46.049Z,99526
2017-07-27T01:51:46.539Z,99525
2017-07-27T01:52:47.773Z,99523
2017-07-27T01:53:47.213Z,99526
2017-07-27T01:54:46.430Z,99526
2017-07-27T01:55:47.292Z,99531
2017-07-27T01:56:47.426Z,99527
2017-07-27T01:57:47.827Z,99527
2017-07-27T01:58:48.244Z,99532
2017-07-27T01:59:47.586Z,99528
2017-07-27T02:00:46.712Z,99521
2017-07-27T02:01:46.654Z,99526
2017-07-27T02:02:47.657Z,99531
2017-07-27T02:03:46.986Z,99526
2017-07-27T02:04:46.876Z,99531
2017-07-27T02:05:46.863Z,99518
2017-07-27T02:06:46.998Z,99524
2017-07-27T02:07:49.332Z,99524
2017-07-27T02:08:48.167Z,99527
2017-07-27T02:09:50.902Z,99524
2017-07-27T02:10:47.069Z,99525
2017-07-27T02:11:47.130Z,99524
2017-07-27T02:12:48.146Z,99525
2017-07-27T02:13:48.173Z,99523
2017-07-27T02:14:49.115Z,99521
2017-07-27T02:15:49.286Z,99520
2017-07-27T02:16:49.000Z,99522
2017-07-27T02:17:47.508Z,99517
2017-07-27T02:18:49.183Z,99516
2017-07-27T02:19:49.224Z,99522
2017-07-27T02:20:49.247Z,99512
2017-07-27T02:21:48.816Z,99507
2017-07-27T02:22:48.740Z,99513
2017-07-27T02:23:48.670Z,99512
2017-07-27T02:24:48.557Z,99514
2017-07-27T02:25:48.934Z,99515
2017-07-27T02:26:48.874Z,99510
2017-07-27T02:27:50.009Z,99510
2017-07-27T02:28:50.346Z,99500
2017-07-27T02:29:49.785Z,99508
2017-07-27T02:30:48.265Z,99508
2017-07-27T02:31:49.893Z,99506
2017-07-27T02:32:49.996Z,99506
2017-07-27T02:33:51.214Z,99505
2017-07-27T02:34:49.411Z,99509
2017-07-27T02:35:49.533Z,99494
2017-07-27T02:36:50.355Z,99503
2017-07-27T02:37:48.734Z,99504
2017-07-27T02:38:49.751Z,99504
2017-07-27T02:39:50.821Z,99503
2017-07-27T02:40:50.584Z,99503
2017-07-27T02:41:49.931Z,99502
2017-07-27T02:42:50.695Z,99501
2017-07-27T02:43:49.049Z,99491
2017-07-27T02:44:49.133Z,99489
2017-07-27T02:45:49.449Z,99499
2017-07-27T02:46:50.135Z,99500
2017-07-27T02:47:50.612Z,99499
2017-07-27T02:48:51.434Z,99495
2017-07-27T02:49:51.131Z,99498
2017-07-27T02:50:50.092Z,99485
2017-07-27T02:51:50.813Z,99481
2017-07-27T02:52:49.595Z,99482
2017-07-27T02:53:50.629Z,99492
2017-07-27T02:54:51.006Z,99490
2017-07-27T02:55:49.838Z,99487
2017-07-27T02:56:51.128Z,99487
2017-07-27T02:57:52.937Z,99485
2017-07-27T02:58:51.505Z,99484
2017-07-27T02:59:52.295Z,99479
2017-07-27T03:00:51.931Z,99485
2017-07-27T03:01:51.394Z,99482
2017-07-27T03:02:51.993Z,99481
2017-07-27T03:03:51.583Z,99475
2017-07-27T03:04:51.617Z,99478
2017-07-27T03:05:52.884Z,99469
2017-07-27T03:06:50.310Z,99483
2017-07-27T03:07:51.931Z,99484
2017-07-27T03:08:52.117Z,99477
2017-07-27T03:09:53.188Z,99477
2017-07-27T03:10:54.656Z,99470
2017-07-27T03:11:50.684Z,99473
2017-07-27T03:12:54.199Z,99474
2017-07-27T03:13:52.469Z,99474
2017-07-27T03:14:52.349Z,99480
2017-07-27T03:15:51.067Z,99477
2017-07-27T03:16:53.366Z,99465
2017-07-27T03:17:52.593Z,99472
2017-07-27T03:18:53.025Z,99473
2017-07-27T03:19:51.927Z,99474
2017-07-27T03:20:51.789Z,99472
2017-07-27T03:21:51.123Z,99473
2017-07-27T03:22:50.925Z,99468
2017-07-27T03:23:52.078Z,99463
2017-07-27T03:24:52.111Z,99457
2017-07-27T03:25:52.165Z,99454
2017-07-27T03:26:52.342Z,99450
2017-07-27T03:27:52.611Z,99457
2017-07-27T03:28:53.084Z,99457
2017-07-27T03:29:52.507Z,99456
2017-07-27T03:30:51.534Z,99453
2017-07-27T03:31:51.598Z,99454
2017-07-27T03:32:51.580Z,99454
2017-07-27T03:33:52.853Z,99446
2017-07-27T03:34:53.436Z,99456
2017-07-27T03:35:53.482Z,99454
2017-07-27T03:36:53.466Z,99454
2017-07-27T03:37:51.922Z,99456
2017-07-27T03:38:52.918Z,99458
2017-07-27T03:39:52.123Z,99463
2017-07-27T03:40:52.942Z,99455
2017-07-27T03:41:52.925Z,99452
2017-07-27T03:42:52.091Z,99455
2017-07-27T03:43:52.124Z,99458
2017-07-27T03:44:52.057Z,99456
2017-07-27T03:45:54.200Z,99459
2017-07-27T03:46:52.209Z,99458
2017-07-27T03:47:53.974Z,99467
2017-07-27T03:48:52.410Z,99465
2017-07-27T03:49:53.453Z,99467
2017-07-27T03:50:52.651Z,99462
2017-07-27T03:51:53.871Z,99462
2017-07-27T03:52:54.333Z,99469
2017-07-27T03:53:53.683Z,99472
2017-07-27T03:54:52.804Z,99472
2017-07-27T03:55:52.891Z,99475
2017-07-27T03:56:54.615Z,99476
2017-07-27T03:57:54.341Z,99470
2017-07-27T03:58:54.664Z,99472
2017-07-27T03:59:54.805Z,99464
2017-07-27T04:00:53.171Z,99469
2017-07-27T04:01:54.184Z,99471
2017-07-27T04:02:53.288Z,99467
2017-07-27T04:03:54.525Z,99465
2017-07-27T04:04:54.391Z,99455
2017-07-27T04:05:53.310Z,99458
2017-07-27T04:06:55.040Z,99459
2017-07-27T04:07:53.514Z,99458
2017-07-27T04:08:55.257Z,99451
2017-07-27T04:09:55.450Z,99457
2017-07-27T04:10:54.605Z,99453
2017-07-27T04:11:55.325Z,99455
2017-07-27T04:12:53.718Z,99456
2017-07-27T04:13:55.294Z,99449
2017-07-27T04:14:53.786Z,99453
2017-07-27T04:15:54.094Z,99454
2017-07-27T04:16:54.743Z,99456
2017-07-27T04:17:53.913Z,99457
2017-07-27T04:18:53.988Z,99459
2017-07-27T04:19:53.964Z,99458
2017-07-27T04:20:54.147Z,99461
2017-07-27T04:21:54.394Z,99463
2017-07-27T04:22:54.296Z,99467
2017-07-27T04:23:55.876Z,99467
2017-07-27T04:24:54.234Z,99465
2017-07-27T04:25:56.116Z,99462
2017-07-27T04:26:54.499Z,99462
2017-07-27T04:27:56.451Z,99463
2017-07-27T04:28:55.626Z,99466
2017-07-27T04:29:55.647Z,99465
2017-07-27T04:30:54.589Z,99469
2017-07-27T04:31:56.333Z,99468
2017-07-27T04:32:55.674Z,99475
2017-07-27T04:33:56.163Z,99468
2017-07-27T04:34:54.905Z,99475
2017-07-27T04:35:54.860Z,99475
2017-07-27T04:36:54.872Z,99474
2017-07-27T04:37:54.970Z,99474
2017-07-27T04:38:56.694Z,99472
2017-07-27T04:39:56.431Z,99474
2017-07-27T04:40:55.266Z,99475
2017-07-27T04:41:55.271Z,99478
2017-07-27T04:42:55.317Z,99471
2017-07-27T04:43:57.060Z,99471
2017-07-27T04:44:57.067Z,99478
2017-07-27T04:45:57.455Z,99476
2017-07-27T04:46:55.563Z,99481
2017-07-27T04:47:57.300Z,99484
2017-07-27T04:48:57.465Z,99487
2017-07-27T04:49:55.691Z,99486
2017-07-27T04:50:55.875Z,99483
2017-07-27T04:51:57.778Z,99480
2017-07-27T04:52:57.562Z,99469
2017-07-27T04:53:57.747Z,99471
2017-07-27T04:54:57.003Z,99473
2017-07-27T04:55:57.762Z,99471
2017-07-27T04:56:57.186Z,99474
2017-07-27T04:57:58.205Z,99477
2017-07-27T04:58:56.203Z,99478
2017-07-27T04:59:57.184Z,99478
2017-07-27T05:00:56.316Z,99472
2017-07-27T05:01:58.141Z,99475
2017-07-27T05:02:56.439Z,99482
2017-07-27T05:03:57.762Z,99477
2017-07-27T05:04:57.555Z,99469
2017-07-27T05:05:56.669Z,99477
2017-07-27T05:06:57.664Z,99473
2017-07-27T05:07:57.706Z,99471
2017-07-27T05:08:56.812Z,99472
2017-07-27T05:09:58.882Z,99483
2017-07-27T05:10:56.898Z,99482
2017-07-27T05:11:57.055Z,99484
2017-07-27T05:12:56.993Z,99479
2017-07-27T05:13:58.166Z,99492
2017-07-27T05:14:58.137Z,99490
2017-07-27T05:15:59.254Z,99494
2017-07-27T05:16:59.039Z,99489
2017-07-27T05:17:59.132Z,99493
2017-07-27T05:18:59.192Z,99495
2017-07-27T05:19:57.509Z,99491
2017-07-27T05:20:58.579Z,99488
2017-07-27T05:21:57.948Z,99498
2017-07-27T05:22:58.654Z,99494
2017-07-27T05:23:57.684Z,99485
2017-07-27T05:24:59.406Z,99488
2017-07-27T05:25:57.895Z,99494
2017-07-27T05:26:59.604Z,99496
2017-07-27T05:27:59.252Z,99495
2017-07-27T05:28:58.943Z,99500
2017-07-27T05:29:59.748Z,99498
2017-07-27T05:30:59.861Z,99498
2017-07-27T05:31:58.161Z,99495
2017-07-27T05:32:59.821Z,99482
2017-07-27T05:33:59.981Z,99471
2017-07-27T05:34:58.283Z,99467
2017-07-27T05:35:59.979Z,99463
2017-07-27T05:37:00.137Z,99467
2017-07-27T05:37:58.451Z,99468
2017-07-27T05:39:00.255Z,99473
2017-07-27T05:40:00.332Z,99475
2017-07-27T05:40:58.675Z,99472
2017-07-27T05:41:58.699Z,99476
2017-07-27T05:42:59.655Z,99460
2017-07-27T05:43:58.703Z,99471
2017-07-27T05:44:58.724Z,99473
2017-07-27T05:46:00.201Z,99471
2017-07-27T05:46:58.858Z,99470
2017-07-27T05:47:58.817Z,99470
2017-07-27T05:48:59.008Z,99471
2017-07-27T05:50:00.653Z,99474
2017-07-27T05:50:59.014Z,99472
2017-07-27T05:51:59.508Z,99475
2017-07-27T05:52:59.240Z,99472
2017-07-27T05:53:59.186Z,99472
2017-07-27T05:54:59.314Z,99472
2017-07-27T05:55:59.321Z,99471
2017-07-27T05:57:00.916Z,99477
2017-07-27T05:58:00.692Z,99480
2017-07-27T05:59:00.429Z,99478
2017-07-27T06:00:01.209Z,99481
2017-07-27T06:01:01.097Z,99475
2017-07-27T06:02:01.092Z,99474
2017-07-27T06:03:00.402Z,99466
2017-07-27T06:04:00.932Z,99465
2017-07-27T06:05:00.469Z,99461
2017-07-27T06:05:59.589Z,99459
2017-07-27T06:07:01.388Z,99452
2017-07-27T06:08:01.397Z,99469
2017-07-27T06:08:59.649Z,99469
2017-07-27T06:10:01.776Z,99475
2017-07-27T06:10:59.797Z,99483
2017-07-27T06:12:01.500Z,99490
2017-07-27T06:12:59.907Z,99481
2017-07-27T06:14:00.155Z,99489
2017-07-27T06:15:00.192Z,99494
2017-07-27T06:16:00.465Z,99498
2017-07-27T06:17:01.223Z,99501
2017-07-27T06:18:01.891Z,99498
2017-07-27T06:19:00.249Z,99493
2017-07-27T06:20:00.244Z,99506
2017-07-27T06:21:01.292Z,99498
2017-07-27T06:22:01.626Z,99490
2017-07-27T06:23:02.116Z,99501
2017-07-27T06:24:02.213Z,99499
2017-07-27T06:25:01.494Z,99505
2017-07-27T06:26:00.721Z,99514
2017-07-27T06:27:01.605Z,99513
2017-07-27T06:28:02.774Z,99517
2017-07-27T06:29:01.717Z,99518
2017-07-27T06:30:00.856Z,99518
2017-07-27T06:31:00.794Z,99515
2017-07-27T06:32:02.669Z,99514
2017-07-27T06:33:01.867Z,99512
2017-07-27T06:34:01.331Z,99503
2017-07-27T06:35:02.793Z,99513
2017-07-27T06:36:01.000Z,99511
2017-07-27T06:37:02.053Z,99517
2017-07-27T06:38:02.210Z,99516
2017-07-27T06:39:01.257Z,99518
2017-07-27T06:40:03.183Z,99508
2017-07-27T06:41:02.220Z,99520
2017-07-27T06:42:01.432Z,99512
2017-07-27T06:43:03.026Z,99501
2017-07-27T06:44:01.373Z,99517
2017-07-27T06:45:01.518Z,99517
2017-07-27T06:46:02.811Z,99510
2017-07-27T06:47:03.339Z,99508
2017-07-27T06:48:02.189Z,99506
2017-07-27T06:49:02.744Z,99521
2017-07-27T06:50:03.522Z,99525
2017-07-27T06:51:02.859Z,99513
2017-07-27T06:52:02.233Z,99522
2017-07-27T06:53:02.841Z,99509
2017-07-27T06:54:03.682Z,99524
2017-07-27T06:55:02.026Z,99524
2017-07-27T06:56:02.119Z,99528
2017-07-27T06:57:03.024Z,99524
2017-07-27T06:58:02.454Z,99531
2017-07-27T06:59:03.826Z,99524
2017-07-27T07:00:02.868Z,99524
2017-07-27T07:01:03.936Z,99521
2017-07-27T07:02:02.363Z,99520
2017-07-27T07:03:04.013Z,99509
2017-07-27T07:04:03.638Z,99520
2017-07-27T07:05:04.231Z,99515
2017-07-27T07:06:02.497Z,99514
2017-07-27T07:07:02.537Z,99517
2017-07-27T07:08:04.247Z,99519
2017-07-27T07:09:02.664Z,99520
2017-07-27T07:10:04.039Z,99520
2017-07-27T07:11:02.748Z,99518
2017-07-27T07:12:02.761Z,99514
2017-07-27T07:13:03.506Z,99524
2017-07-27T07:14:02.849Z,99522
2017-07-27T07:15:04.018Z,99519
2017-07-27T07:16:03.134Z,99511
2017-07-27T07:17:02.910Z,99510
2017-07-27T07:18:03.945Z,99510
2017-07-27T07:19:04.061Z,99518
2017-07-27T07:20:03.043Z,99518
2017-07-27T07:21:04.881Z,99516
2017-07-27T07:22:05.198Z,99519
2017-07-27T07:23:04.328Z,99519
2017-07-27T07:24:04.982Z,99509
2017-07-27T07:25:05.078Z,99520
2017-07-27T07:26:03.437Z,99525
2017-07-27T07:27:04.470Z,99521
2017-07-27T07:28:03.917Z,99511
2017-07-27T07:29:04.567Z,99529
2017-07-27T07:30:03.658Z,99531
2017-07-27T07:31:04.704Z,99530
2017-07-27T07:32:03.851Z,99527
2017-07-27T07:33:03.840Z,99530
2017-07-27T07:34:04.291Z,99538
2017-07-27T07:35:03.916Z,99539
2017-07-27T07:36:04.010Z,99540
2017-07-27T07:37:05.846Z,99540
2017-07-27T07:38:05.826Z,99536
2017-07-27T07:39:05.855Z,99538
2017-07-27T07:40:05.543Z,99543
2017-07-27T07:41:05.469Z,99535
2017-07-27T07:42:05.517Z,99541
2017-07-27T07:43:04.602Z,99537
2017-07-27T07:44:06.904Z,99538
2017-07-27T07:45:06.360Z,99539
2017-07-27T07:46:05.797Z,99537
2017-07-27T07:47:05.599Z,99524
2017-07-27T07:48:08.948Z,99536
2017-07-27T07:49:05.938Z,99529
2017-07-27T07:50:05.820Z,99526
2017-07-27T07:51:05.529Z,99533
2017-07-27T07:52:06.301Z,99535
2017-07-27T07:53:06.742Z,99523
2017-07-27T07:54:05.127Z,99527
2017-07-27T07:55:05.190Z,99523
2017-07-27T07:56:06.924Z,99539
2017-07-27T07:57:06.189Z,99540
2017-07-27T07:58:07.303Z,99543
2017-07-27T07:59:07.032Z,99541
2017-07-27T08:00:07.094Z,99542
2017-07-27T08:01:07.085Z,99540
2017-07-27T08:02:06.496Z,99540
2017-07-27T08:03:05.422Z,99536
2017-07-27T08:04:08.722Z,99531
2017-07-27T08:05:06.567Z,99538
2017-07-27T08:06:06.257Z,99541
2017-07-27T08:07:05.641Z,99538
2017-07-27T08:08:06.586Z,99535
2017-07-27T08:09:06.334Z,99545
2017-07-27T08:10:06.072Z,99551
2017-07-27T08:11:05.868Z,99542
2017-07-27T08:12:06.967Z,99537
2017-07-27T08:13:05.897Z,99535
2017-07-27T08:14:06.028Z,99552
2017-07-27T08:15:05.957Z,99540
2017-07-27T08:16:08.115Z,99548
2017-07-27T08:17:07.759Z,99548
2017-07-27T08:18:06.188Z,99555
2017-07-27T08:19:06.228Z,99561
2017-07-27T08:20:06.273Z,99554
2017-07-27T08:21:07.337Z,99549
2017-07-27T08:22:07.818Z,99547
2017-07-27T08:23:07.617Z,99545
2017-07-27T08:24:06.687Z,99541
2017-07-27T08:25:08.482Z,99541
2017-07-27T08:26:08.326Z,99548
2017-07-27T08:27:08.411Z,99547
2017-07-27T08:28:07.113Z,99546
2017-07-27T08:29:07.050Z,99548
2017-07-27T08:30:08.611Z,99546
2017-07-27T08:31:07.019Z,99552
2017-07-27T08:32:08.198Z,99548
2017-07-27T08:33:07.200Z,99544
2017-07-27T08:34:09.218Z,99543
2017-07-27T08:35:07.232Z,99539
2017-07-27T08:37:09.043Z,99546
2017-07-27T08:38:08.410Z,99545
2017-07-27T08:39:09.226Z,99545
2017-07-27T08:40:07.860Z,99540
2017-07-27T08:41:08.641Z,99536
2017-07-27T08:42:08.680Z,99536
2017-07-27T08:43:08.575Z,99536
2017-07-27T08:44:07.804Z,99530
2017-07-27T08:45:07.900Z,99529
2017-07-27T08:46:08.090Z,99522
2017-07-27T08:47:07.926Z,99523
2017-07-27T08:48:09.672Z,99523
2017-07-27T08:49:09.039Z,99526
2017-07-27T08:50:09.121Z,99529
2017-07-27T08:51:09.836Z,99533
2017-07-27T08:52:08.409Z,99532
2017-07-27T08:53:08.081Z,99520
2017-07-27T08:54:08.197Z,99523
2017-07-27T08:55:08.151Z,99529
2017-07-27T08:56:08.837Z,99528
2017-07-27T08:57:09.922Z,99524
2017-07-27T08:58:09.701Z,99519
2017-07-27T08:59:09.492Z,99524
2017-07-27T09:00:10.204Z,99528
2017-07-27T09:01:10.105Z,99535
2017-07-27T09:02:09.537Z,99537
2017-07-27T09:03:08.557Z,99544
2017-07-27T09:04:08.922Z,99552
2017-07-27T09:05:09.773Z,99560
2017-07-27T09:06:10.555Z,99553
2017-07-27T09:07:10.494Z,99543
2017-07-27T09:08:09.672Z,99551
2017-07-27T09:09:10.983Z,99550
2017-07-27T09:10:09.553Z,99544
2017-07-27T09:11:09.022Z,99549
2017-07-27T09:12:10.744Z,99542
2017-07-27T09:13:10.075Z,99541
2017-07-27T09:14:10.463Z,99547
2017-07-27T09:15:09.198Z,99544
2017-07-27T09:16:09.648Z,99550
2017-07-27T09:17:09.370Z,99547
2017-07-27T09:18:11.110Z,99550
2017-07-27T09:19:10.412Z,99548
2017-07-27T09:20:09.394Z,99546
2017-07-27T09:21:09.403Z,99530
2017-07-27T09:22:11.487Z,99538
2017-07-27T09:23:11.019Z,99531
2017-07-27T09:24:09.721Z,99538
2017-07-27T09:25:11.345Z,99540
2017-07-27T09:26:09.819Z,99540
2017-07-27T09:27:10.351Z,99538
2017-07-27T09:28:10.770Z,99550
2017-07-27T09:29:09.845Z,99549
2017-07-27T09:30:11.010Z,99557
2017-07-27T09:31:11.120Z,99556
2017-07-27T09:32:11.147Z,99552
2017-07-27T09:33:10.211Z,99557
2017-07-27T09:34:11.562Z,99552
2017-07-27T09:35:10.412Z,99558
2017-07-27T09:36:10.431Z,99557
2017-07-27T09:37:10.444Z,99556
2017-07-27T09:38:12.171Z,99558
2017-07-27T09:39:10.455Z,99558
2017-07-27T09:40:12.497Z,99553
2017-07-27T09:41:11.644Z,99546
2017-07-27T09:42:11.642Z,99539
2017-07-27T09:43:11.780Z,99534
2017-07-27T09:44:10.824Z,99535
2017-07-27T09:45:12.601Z,99537
2017-07-27T09:46:12.096Z,99530
2017-07-27T09:47:12.669Z,99541
2017-07-27T09:48:11.006Z,99533
2017-07-27T09:49:10.938Z,99532
2017-07-27T09:50:12.784Z,99532
2017-07-27T09:51:12.176Z,99550
2017-07-27T09:52:13.147Z,99538
2017-07-27T09:53:11.120Z,99537
2017-07-27T09:54:11.253Z,99530
2017-07-27T09:55:12.130Z,99532
2017-07-27T09:56:11.180Z,99532
2017-07-27T09:57:13.014Z,99521
2017-07-27T09:58:12.717Z,99527
2017-07-27T09:59:13.139Z,99531
2017-07-27T10:00:11.515Z,99534
2017-07-27T10:01:11.557Z,99524
2017-07-27T10:02:12.899Z,99521
2017-07-27T10:03:13.211Z,99521
2017-07-27T10:04:12.050Z,99520
2017-07-27T10:05:11.880Z,99522
2017-07-27T10:06:12.771Z,99525
2017-07-27T10:07:12.451Z,99529
2017-07-27T10:08:13.617Z,99529
2017-07-27T10:09:14.182Z,99527
2017-07-27T10:10:12.325Z,99535
2017-07-27T10:11:13.656Z,99535
2017-07-27T10:12:13.612Z,99535
2017-07-27T10:13:11.986Z,99544
2017-07-27T10:14:14.781Z,99546
2017-07-27T10:15:13.193Z,99534
2017-07-27T10:16:12.558Z,99538
2017-07-27T10:17:14.448Z,99542
2017-07-27T10:18:13.156Z,99541
2017-07-27T10:19:15.276Z,99545
2017-07-27T10:20:12.298Z,99540
2017-07-27T10:21:44.139Z,99542
2017-07-27T10:22:44.549Z,99532
2017-07-27T10:23:43.977Z,99530
2017-07-27T10:24:43.263Z,99526
2017-07-27T10:25:42.367Z,99530
2017-07-27T10:26:44.112Z,99532
2017-07-27T10:27:42.901Z,99542
2017-07-27T10:28:45.013Z,99536
2017-07-27T10:29:43.589Z,99539
2017-07-27T10:30:46.837Z,99551
2017-07-27T10:31:42.836Z,99538
2017-07-27T10:32:42.800Z,99519
2017-07-27T10:33:45.565Z,99525
2017-07-27T10:34:44.639Z,99525
2017-07-27T10:35:44.403Z,99532
2017-07-27T10:36:43.161Z,99528
2017-07-27T10:37:43.085Z,99533
2017-07-27T10:38:43.180Z,99532
2017-07-27T10:39:45.148Z,99539
2017-07-27T10:40:43.243Z,99541
2017-07-27T10:41:43.240Z,99550
2017-07-27T10:42:43.399Z,99542
2017-07-27T10:43:43.338Z,99542
2017-07-27T10:44:45.059Z,99546
2017-07-27T10:45:45.299Z,99542
2017-07-27T10:46:44.051Z,99538
2017-07-27T10:47:43.455Z,99548
2017-07-27T10:48:43.484Z,99547
2017-07-27T10:49:43.623Z,99549
2017-07-27T10:50:43.744Z,99544
2017-07-27T10:51:44.992Z,99552
2017-07-27T10:52:45.619Z,99555
2017-07-27T10:53:47.635Z,99558
2017-07-27T10:54:45.561Z,99556
2017-07-27T10:55:45.502Z,99555
2017-07-27T10:56:44.026Z,99562
2017-07-27T10:57:45.359Z,99556
2017-07-27T10:58:45.242Z,99605
2017-07-27T10:59:46.362Z,99578
2017-07-27T11:00:44.383Z,99576
2017-07-27T11:01:44.443Z,99571
2017-07-27T11:02:44.465Z,99568
2017-07-27T11:03:45.471Z,99570
2017-07-27T11:04:46.375Z,99557
2017-07-27T11:05:45.712Z,99552
2017-07-27T11:06:46.358Z,99559
2017-07-27T11:07:45.442Z,99549
2017-07-27T11:08:47.650Z,99567
2017-07-27T11:09:46.884Z,99541
2017-07-27T11:10:47.185Z,99542
2017-07-27T11:11:45.876Z,99543
2017-07-27T11:12:45.011Z,99536
2017-07-27T11:13:46.579Z,99542
2017-07-27T11:14:45.890Z,99537
2017-07-27T11:15:46.911Z,99544
2017-07-27T11:16:46.677Z,99546
2017-07-27T11:17:45.810Z,99550
2017-07-27T11:18:45.173Z,99545
2017-07-27T11:19:45.930Z,99547
2017-07-27T11:20:46.025Z,99550
2017-07-27T11:21:47.403Z,99552
2017-07-27T11:22:47.562Z,99560
2017-07-27T11:23:45.387Z,99550
2017-07-27T11:24:45.458Z,99549
2017-07-27T11:25:45.557Z,99556
2017-07-27T11:26:45.583Z,99559
2017-07-27T11:27:47.542Z,99555
2017-07-27T11:28:47.216Z,99560
2017-07-27T11:29:46.337Z,99566
2017-07-27T11:30:45.607Z,99555
2017-07-27T11:31:47.286Z,99556
2017-07-27T11:32:45.677Z,99574
2017-07-27T11:33:47.806Z,99579
2017-07-27T11:34:46.365Z,99581
2017-07-27T11:35:45.787Z,99574
2017-07-27T11:36:46.901Z,99585
2017-07-27T11:37:47.711Z,99583
2017-07-27T11:38:47.243Z,99586
2017-07-27T11:39:47.255Z,99593
2017-07-27T11:40:46.131Z,99588
2017-07-27T11:41:46.144Z,99587
2017-07-27T11:42:46.303Z,99580
2017-07-27T11:43:47.949Z,99578
2017-07-27T11:44:46.395Z,99583
2017-07-27T11:45:47.588Z,99576
2017-07-27T11:46:46.595Z,99586
2017-07-27T11:47:47.466Z,99586
2017-07-27T11:48:47.352Z,99580
2017-07-27T11:49:47.364Z,99583
2017-07-27T11:50:47.570Z,99593
2017-07-27T11:51:46.872Z,99589
2017-07-27T11:52:46.733Z,99589
2017-07-27T11:53:47.767Z,99579
2017-07-27T11:54:48.538Z,99573
2017-07-27T11:55:47.805Z,99571
2017-07-27T11:56:47.000Z,99563
2017-07-27T11:57:47.229Z,99563
2017-07-27T11:58:49.281Z,99561
2017-07-27T11:59:49.417Z,99567
2017-07-27T12:00:48.118Z,99554
2017-07-27T12:01:47.203Z,99558
2017-07-27T12:02:47.244Z,99559
2017-07-27T12:03:47.493Z,99560
2017-07-27T12:04:49.110Z,99556
2017-07-27T12:05:49.258Z,99547
2017-07-27T12:06:49.215Z,99548
2017-07-27T12:07:49.218Z,99566
2017-07-27T12:08:48.602Z,99551
2017-07-27T12:09:49.492Z,99548
2017-07-27T12:10:48.600Z,99543
2017-07-27T12:11:48.699Z,99552
2017-07-27T12:12:47.794Z,99555
2017-07-27T12:13:50.304Z,99557
2017-07-27T12:14:48.811Z,99558
2017-07-27T12:15:49.109Z,99556
2017-07-27T12:16:47.982Z,99562
2017-07-27T12:17:48.885Z,99562
2017-07-27T12:18:48.068Z,99592
2017-07-27T12:19:48.908Z,99576
2017-07-27T12:20:49.928Z,99578
2017-07-27T12:21:49.504Z,99573
2017-07-27T12:22:48.280Z,99576
2017-07-27T12:23:48.261Z,99564
2017-07-27T12:24:49.958Z,99558
2017-07-27T12:25:48.239Z,99546
2017-07-27T12:26:48.313Z,99555
2017-07-27T12:27:48.360Z,99560
2017-07-27T12:28:48.502Z,99565
2017-07-27T12:29:49.361Z,99560
2017-07-27T12:30:48.579Z,99565
2017-07-27T12:31:50.349Z,99566
2017-07-27T12:32:49.632Z,99575
2017-07-27T12:33:49.691Z,99564
2017-07-27T12:34:49.460Z,99565
2017-07-27T12:35:50.505Z,99551
2017-07-27T12:36:49.603Z,99551
2017-07-27T12:37:48.966Z,99548
2017-07-27T12:38:49.008Z,99545
2017-07-27T12:39:50.070Z,99545
2017-07-27T12:40:49.152Z,99538
2017-07-27T12:41:50.792Z,99546
2017-07-27T12:42:50.160Z,99542
2017-07-27T12:43:51.850Z,99519
2017-07-27T12:44:52.360Z,99539
2017-07-27T12:45:52.080Z,99535
2017-07-27T12:46:51.168Z,99543
2017-07-27T12:48:50.333Z,99544
2017-07-27T12:49:50.823Z,99554
2017-07-27T12:50:50.483Z,99555
2017-07-27T12:51:49.654Z,99550
2017-07-27T12:52:49.625Z,99553
2017-07-27T12:53:50.780Z,99536
2017-07-27T12:54:50.842Z,99541
2017-07-27T12:55:50.200Z,99540